createdAt,value
2019-03-13T00:01:41.629Z,53.15
2019-03-13T00:04:12.894Z,52.79
2019-03-13T00:06:44.461Z,52.55
2019-03-13T00:09:15.923Z,53.25
2019-03-13T00:11:47.449Z,52.92
2019-03-13T00:14:18.670Z,53.03
2019-03-13T00:16:50.202Z,53.35
2019-03-13T00:19:22.131Z,53.29
2019-03-13T00:21:54.047Z,53.29
2019-03-13T00:24:25.551Z,53.42
2019-03-13T00:26:56.913Z,53.78
2019-03-13T00:29:28.013Z,53.61
2019-03-13T00:32:00.225Z,54.71
2019-03-13T00:34:31.461Z,55.97
2019-03-13T00:37:03.530Z,57.28
2019-03-13T00:39:34.755Z,59.45
2019-03-13T00:42:05.981Z,61.65
2019-03-13T00:44:37.273Z,63.20
2019-03-13T00:47:08.862Z,64.37
2019-03-13T00:49:40.656Z,64.89
2019-03-13T00:52:11.938Z,65.11
2019-03-13T00:54:43.459Z,65.91
2019-03-13T00:57:14.840Z,66.32
2019-03-13T00:59:46.043Z,67.07
2019-03-13T01:02:48.450Z,67.98
2019-03-13T01:05:28.008Z,68.31
2019-03-13T01:07:59.195Z,68.53
2019-03-13T01:10:30.472Z,68.45
2019-03-13T01:13:02.108Z,68.53
2019-03-13T01:15:33.340Z,68.20
2019-03-13T01:18:04.569Z,67.95
2019-03-13T01:20:36.089Z,68.16
2019-03-13T01:23:07.330Z,68.19
2019-03-13T01:25:38.622Z,68.36
2019-03-13T01:28:10.203Z,68.48
2019-03-13T01:30:50.667Z,68.48
2019-03-13T01:33:22.975Z,68.84
2019-03-13T01:36:00.584Z,69.12
2019-03-13T01:38:31.799Z,69.31
2019-03-13T01:41:03.621Z,69.70
2019-03-13T01:43:34.981Z,70.21
2019-03-13T01:46:06.572Z,69.80
2019-03-13T01:48:37.742Z,69.52
2019-03-13T01:51:09.358Z,68.89
2019-03-13T01:53:40.585Z,67.87
2019-03-13T01:56:12.097Z,67.54
2019-03-13T01:58:43.327Z,67.48
2019-03-13T02:01:14.830Z,67.53
2019-03-13T02:03:46.971Z,67.46
2019-03-13T02:06:18.814Z,67.62
2019-03-13T02:08:50.083Z,66.75
2019-03-13T02:11:22.300Z,66.98
2019-03-13T02:13:55.103Z,66.73
2019-03-13T02:16:26.306Z,66.46
2019-03-13T02:18:58.558Z,65.91
2019-03-13T02:21:29.784Z,65.65
2019-03-13T02:24:01.376Z,66.34
2019-03-13T02:26:32.617Z,65.92
2019-03-13T02:29:04.320Z,65.69
2019-03-13T02:31:36.645Z,65.81
2019-03-13T02:34:08.212Z,65.74
2019-03-13T02:36:39.354Z,66.02
2019-03-13T02:39:11.260Z,66.29
2019-03-13T02:41:42.843Z,66.33
2019-03-13T02:44:14.378Z,66.20
2019-03-13T02:46:45.602Z,66.33
2019-03-13T02:49:17.148Z,66.39
2019-03-13T02:51:48.346Z,66.42
2019-03-13T02:54:19.833Z,66.36
2019-03-13T02:56:51.391Z,66.51
2019-03-13T02:59:22.607Z,66.35
2019-03-13T03:02:17.104Z,65.90
2019-03-13T03:04:48.726Z,65.89
2019-03-13T03:07:19.898Z,65.88
2019-03-13T03:09:51.132Z,66.02
2019-03-13T03:12:22.442Z,65.89
2019-03-13T03:15:07.319Z,65.88
2019-03-13T03:17:39.198Z,65.53
2019-03-13T03:20:13.991Z,65.96
2019-03-13T03:22:45.814Z,66.12
2019-03-13T03:25:17.758Z,66.08
2019-03-13T03:27:49.756Z,65.59
2019-03-13T03:30:23.185Z,65.71
2019-03-13T03:32:55.441Z,65.65
2019-03-13T03:35:26.780Z,65.93
2019-03-13T03:37:58.077Z,65.93
2019-03-13T03:40:29.304Z,65.93
2019-03-13T03:43:01.117Z,66.31
2019-03-13T03:45:33.853Z,66.42
2019-03-13T03:48:05.362Z,66.53
2019-03-13T03:50:36.524Z,66.77
2019-03-13T03:53:07.710Z,67.00
2019-03-13T03:55:39.083Z,67.10
2019-03-13T03:58:10.276Z,67.45
2019-03-13T04:00:41.980Z,67.73
2019-03-13T04:03:13.432Z,67.69
2019-03-13T04:05:44.944Z,67.72
2019-03-13T04:08:16.159Z,67.94
2019-03-13T04:10:47.403Z,67.94
2019-03-13T04:13:18.901Z,68.35
2019-03-13T04:15:50.493Z,68.40
2019-03-13T04:18:21.723Z,68.69
2019-03-13T04:20:53.015Z,68.72
2019-03-13T04:23:24.598Z,68.80
2019-03-13T04:25:55.835Z,69.16
2019-03-13T04:28:27.022Z,69.05
2019-03-13T04:30:58.651Z,69.09
2019-03-13T04:33:30.191Z,69.29
2019-03-13T04:36:01.423Z,69.40
2019-03-13T04:38:32.638Z,69.25
2019-03-13T04:41:04.238Z,68.93
2019-03-13T04:43:35.466Z,68.66
2019-03-13T04:46:06.693Z,68.56
2019-03-13T04:48:38.446Z,68.32
2019-03-13T04:51:10.328Z,68.25
2019-03-13T04:53:41.907Z,68.15
2019-03-13T04:56:13.432Z,68.28
2019-03-13T04:58:45.285Z,68.10
2019-03-13T05:01:16.777Z,67.93
2019-03-13T05:03:48.042Z,67.91
2019-03-13T05:06:23.952Z,67.97
2019-03-13T05:09:04.662Z,67.51
2019-03-13T05:11:35.922Z,67.26
2019-03-13T05:14:07.106Z,67.09
2019-03-13T05:16:38.290Z,67.17
2019-03-13T05:19:10.487Z,66.98
2019-03-13T05:21:41.999Z,67.09
2019-03-13T05:24:13.222Z,66.70
2019-03-13T05:26:44.487Z,66.62
2019-03-13T05:29:16.313Z,66.24
2019-03-13T05:31:49.354Z,66.42
2019-03-13T05:34:20.577Z,66.38
2019-03-13T05:36:52.117Z,66.43
2019-03-13T05:39:23.328Z,66.04
2019-03-13T05:41:55.765Z,66.23
2019-03-13T05:44:27.961Z,66.34
2019-03-13T05:46:59.589Z,66.07
2019-03-13T05:49:31.771Z,65.89
2019-03-13T05:52:03.935Z,65.39
2019-03-13T05:54:35.697Z,65.54
2019-03-13T05:57:07.819Z,65.63
2019-03-13T05:59:39.050Z,65.50
2019-03-13T06:02:10.315Z,65.52
2019-03-13T06:04:42.114Z,65.59
2019-03-13T06:07:13.684Z,65.32
2019-03-13T06:09:45.168Z,65.01
2019-03-13T06:12:17.077Z,64.71
2019-03-13T06:14:48.842Z,64.21
2019-03-13T06:17:20.009Z,64.10
2019-03-13T06:19:51.739Z,63.88
2019-03-13T06:22:22.929Z,63.79
2019-03-13T06:24:54.569Z,63.36
2019-03-13T06:27:26.643Z,62.97
2019-03-13T06:29:58.263Z,63.00
2019-03-13T06:32:29.503Z,62.70
2019-03-13T06:35:01.148Z,62.89
2019-03-13T06:37:32.369Z,62.34
2019-03-13T06:40:03.896Z,62.09
2019-03-13T06:42:36.221Z,61.68
2019-03-13T06:45:09.725Z,61.85
2019-03-13T06:47:41.269Z,61.76
2019-03-13T06:50:16.862Z,61.85
2019-03-13T06:52:48.086Z,61.87
2019-03-13T06:55:19.604Z,60.90
2019-03-13T06:57:51.986Z,61.16
2019-03-13T07:00:45.194Z,60.86
2019-03-13T07:03:34.434Z,61.29
2019-03-13T07:06:24.084Z,61.12
2019-03-13T07:09:00.399Z,61.31
2019-03-13T07:11:53.291Z,61.43
2019-03-13T07:14:43.736Z,60.81
2019-03-13T07:17:35.336Z,60.64
2019-03-13T07:20:25.565Z,60.63
2019-03-13T07:23:12.568Z,60.93
2019-03-13T07:26:01.699Z,60.73
2019-03-13T07:28:55.213Z,60.91
2019-03-13T07:31:43.766Z,60.91
2019-03-13T07:34:32.445Z,61.27
2019-03-13T07:37:20.953Z,61.33
2019-03-13T07:40:09.766Z,61.46
2019-03-13T07:42:55.539Z,60.98
2019-03-13T07:45:44.736Z,61.23
2019-03-13T07:48:33.541Z,60.70
2019-03-13T07:51:19.763Z,60.64
2019-03-13T07:54:05.647Z,60.60
2019-03-13T07:56:54.881Z,60.51
2019-03-13T07:59:53.945Z,60.49
2019-03-13T08:02:45.626Z,60.57
2019-03-13T08:05:42.201Z,60.22
2019-03-13T08:08:41.370Z,59.88
2019-03-13T08:11:44.416Z,59.95
2019-03-13T08:14:41.205Z,59.71
2019-03-13T08:17:44.313Z,59.80
2019-03-13T08:20:33.075Z,59.46
2019-03-13T08:23:29.249Z,60.02
2019-03-13T08:26:22.525Z,59.48
2019-03-13T08:29:28.280Z,59.04
2019-03-13T08:32:25.124Z,59.54
2019-03-13T08:35:26.647Z,58.61
2019-03-13T08:38:06.068Z,58.68
2019-03-13T08:41:02.072Z,58.68
2019-03-13T08:43:54.594Z,58.63
2019-03-13T08:46:50.756Z,58.28
2019-03-13T08:49:35.151Z,58.41
2019-03-13T08:52:40.536Z,58.61
2019-03-13T08:55:25.779Z,58.09
2019-03-13T08:58:11.465Z,58.06
2019-03-13T09:01:01.572Z,57.76
2019-03-13T09:03:58.693Z,57.82
2019-03-13T09:07:04.024Z,57.78
2019-03-13T09:09:49.533Z,57.76
2019-03-13T09:12:34.309Z,56.07
2019-03-13T09:15:28.557Z,55.06
2019-03-13T09:18:17.221Z,55.27
2019-03-13T09:21:19.773Z,55.30
2019-03-13T09:24:21.793Z,55.97
2019-03-13T09:27:21.337Z,54.83
2019-03-13T09:30:10.296Z,55.01
2019-03-13T09:33:07.067Z,54.68
2019-03-13T09:35:59.185Z,54.26
2019-03-13T09:39:02.277Z,54.13
2019-03-13T09:41:58.273Z,53.89
2019-03-13T09:44:56.960Z,53.97
2019-03-13T09:47:47.033Z,53.52
2019-03-13T09:50:26.342Z,53.99
2019-03-13T09:53:22.460Z,54.14
2019-03-13T09:56:12.602Z,54.42
2019-03-13T09:59:03.314Z,54.69
2019-03-13T10:01:49.659Z,54.07
2019-03-13T10:04:42.331Z,54.99
2019-03-13T10:07:44.915Z,54.84
2019-03-13T10:10:35.131Z,54.21
2019-03-13T10:13:18.634Z,54.06
2019-03-13T10:16:01.792Z,54.38
2019-03-13T10:18:52.257Z,54.12
2019-03-13T10:21:57.632Z,53.94
2019-03-13T10:24:46.407Z,54.44
2019-03-13T10:27:27.417Z,54.86
2019-03-13T10:30:14.737Z,54.50
2019-03-13T10:32:52.662Z,54.49
2019-03-13T10:35:52.690Z,54.96
2019-03-13T10:38:40.533Z,55.67
2019-03-13T10:41:17.743Z,54.57
2019-03-13T10:44:08.499Z,54.89
2019-03-13T10:46:48.795Z,55.42
2019-03-13T10:49:42.220Z,55.30
2019-03-13T10:52:41.816Z,54.99
2019-03-13T10:55:22.703Z,54.28
2019-03-13T10:58:18.805Z,54.93
2019-03-13T11:01:07.837Z,54.71
2019-03-13T11:03:50.719Z,55.11
2019-03-13T11:06:54.006Z,55.45
2019-03-13T11:09:36.405Z,55.16
2019-03-13T11:12:14.702Z,56.02
2019-03-13T11:15:01.559Z,55.39
2019-03-13T11:17:52.008Z,56.01
2019-03-13T11:20:34.878Z,56.22
2019-03-13T11:23:27.816Z,56.40
2019-03-13T11:26:26.917Z,56.57
2019-03-13T11:29:05.360Z,56.59
2019-03-13T11:32:02.088Z,57.15
2019-03-13T11:34:58.517Z,57.22
2019-03-13T11:37:52.250Z,57.04
2019-03-13T11:40:34.852Z,56.54
2019-03-13T11:43:41.540Z,57.32
2019-03-13T11:46:28.996Z,56.82
2019-03-13T11:49:35.419Z,56.61
2019-03-13T11:52:34.716Z,55.51
2019-03-13T11:55:31.888Z,55.38
2019-03-13T11:58:31.012Z,55.67
2019-03-13T12:01:20.288Z,54.94
2019-03-13T12:04:08.834Z,54.94
2019-03-13T12:06:59.034Z,55.16
2019-03-13T12:09:49.269Z,55.49
2019-03-13T12:12:55.058Z,54.94
2019-03-13T12:15:48.707Z,55.27
2019-03-13T12:18:38.860Z,54.72
2019-03-13T12:21:32.395Z,54.86
2019-03-13T12:24:25.448Z,54.84
2019-03-13T12:27:16.613Z,55.64
2019-03-13T12:29:59.450Z,55.75
2019-03-13T12:32:58.408Z,57.06
2019-03-13T12:35:51.897Z,57.06
2019-03-13T12:38:42.405Z,56.50
2019-03-13T12:41:41.017Z,56.44
2019-03-13T12:44:25.017Z,56.71
2019-03-13T12:47:24.042Z,57.76
2019-03-13T12:50:34.171Z,57.15
2019-03-13T12:53:34.463Z,57.43
2019-03-13T12:56:30.013Z,56.95
2019-03-13T12:59:21.867Z,56.90
2019-03-13T13:02:22.044Z,57.26
2019-03-13T13:05:10.756Z,57.03
2019-03-13T13:08:04.216Z,57.66
2019-03-13T13:11:01.257Z,57.76
2019-03-13T13:13:50.232Z,57.76
2019-03-13T13:16:43.174Z,57.88
2019-03-13T13:19:14.419Z,57.14
2019-03-13T13:21:45.942Z,57.80
2019-03-13T13:24:18.114Z,57.61
2019-03-13T13:26:50.411Z,57.88
2019-03-13T13:29:22.741Z,57.75
2019-03-13T13:31:55.481Z,57.43
2019-03-13T13:34:27.624Z,57.66
2019-03-13T13:36:59.575Z,57.66
2019-03-13T13:39:30.820Z,58.01
2019-03-13T13:42:02.496Z,58.61
2019-03-13T13:44:34.290Z,58.13
2019-03-13T13:47:05.770Z,57.80
2019-03-13T13:49:37.149Z,57.86
2019-03-13T13:52:08.479Z,58.24
2019-03-13T13:54:39.753Z,58.60
2019-03-13T13:57:11.095Z,59.10
2019-03-13T13:59:42.352Z,58.49
2019-03-13T14:02:13.884Z,58.10
2019-03-13T14:04:45.077Z,58.36
2019-03-13T14:07:33.319Z,57.63
2019-03-13T14:10:14.940Z,57.94
2019-03-13T14:13:08.189Z,57.18
2019-03-13T14:19:13.347Z,57.49
2019-03-13T14:21:48.879Z,57.66
2019-03-13T14:24:41.084Z,57.81
2019-03-13T14:27:15.818Z,58.71
2019-03-13T14:32:48.295Z,60.82
2019-03-13T14:35:19.589Z,61.21
2019-03-13T14:38:36.996Z,61.32
2019-03-13T14:41:21.755Z,61.47
2019-03-13T14:43:53.020Z,61.79
2019-03-13T14:46:24.979Z,62.17
2019-03-13T14:48:57.083Z,62.79
2019-03-13T14:51:29.272Z,63.63
2019-03-13T14:54:00.545Z,64.82
2019-03-13T14:56:32.402Z,66.25
2019-03-13T14:59:03.821Z,65.84
2019-03-13T15:01:35.237Z,65.95
2019-03-13T15:04:06.457Z,66.93
2019-03-13T15:06:38.907Z,66.87
2019-03-13T15:09:10.286Z,67.58
2019-03-13T15:11:41.475Z,67.11
2019-03-13T15:14:12.702Z,67.87
2019-03-13T15:16:44.244Z,67.81
2019-03-13T15:19:15.489Z,67.41
2019-03-13T15:21:46.773Z,68.69
2019-03-13T15:24:18.578Z,69.84
2019-03-13T15:26:49.804Z,71.04
2019-03-13T15:29:21.065Z,71.55
2019-03-13T15:31:52.959Z,72.97
2019-03-13T15:34:24.154Z,73.51
2019-03-13T15:37:02.973Z,73.78
2019-03-13T15:39:35.099Z,74.50
2019-03-13T15:42:06.701Z,75.42
2019-03-13T15:44:37.962Z,74.72
2019-03-13T15:47:09.166Z,75.21
2019-03-13T15:49:40.402Z,76.16
2019-03-13T15:52:11.692Z,74.92
2019-03-13T15:54:42.906Z,75.54
2019-03-13T15:57:14.416Z,76.00
2019-03-13T15:59:46.253Z,76.37
2019-03-13T16:02:17.820Z,75.97
2019-03-13T16:04:49.175Z,75.83
2019-03-13T16:07:21.357Z,75.72
2019-03-13T16:09:52.616Z,75.69
2019-03-13T16:12:24.921Z,75.79
2019-03-13T16:14:56.265Z,75.75
2019-03-13T16:17:27.786Z,75.37
2019-03-13T16:19:59.136Z,74.94
2019-03-13T16:22:30.392Z,74.74
2019-03-13T16:25:01.644Z,74.97
2019-03-13T16:27:32.862Z,74.96
2019-03-13T16:30:05.376Z,74.68
2019-03-13T16:32:43.766Z,75.04
2019-03-13T16:35:10.156Z,74.31
2019-03-13T16:37:41.765Z,74.16
2019-03-13T16:40:15.180Z,74.12
2019-03-13T16:42:46.401Z,74.31
2019-03-13T16:45:17.818Z,74.67
2019-03-13T16:51:49.686Z,75.28
2019-03-13T16:54:20.918Z,75.25
2019-03-13T16:56:52.293Z,75.47
2019-03-13T16:59:23.991Z,75.69
2019-03-13T17:01:56.348Z,75.52
2019-03-13T17:04:28.025Z,75.56
2019-03-13T17:07:00.427Z,75.67
2019-03-13T17:09:31.659Z,75.52
2019-03-13T17:12:02.889Z,75.07
2019-03-13T17:14:34.378Z,75.03
2019-03-13T17:17:05.621Z,74.84
2019-03-13T17:19:37.664Z,74.79
2019-03-13T17:22:08.976Z,75.10
2019-03-13T17:24:40.190Z,74.65
2019-03-13T17:27:11.395Z,74.74
2019-03-13T17:29:44.514Z,74.58
2019-03-13T17:32:16.802Z,74.70
2019-03-13T17:34:48.122Z,74.62
2019-03-13T17:37:19.479Z,75.09
2019-03-13T17:39:50.778Z,75.09
2019-03-13T17:42:22.072Z,75.39
2019-03-13T17:44:53.841Z,76.06
2019-03-13T17:47:25.557Z,76.73
2019-03-13T17:49:57.214Z,77.20
2019-03-13T17:52:28.483Z,77.67
2019-03-13T17:54:59.706Z,77.73
2019-03-13T17:57:31.018Z,77.81
2019-03-13T18:00:02.593Z,77.71
2019-03-13T18:02:34.643Z,78.45
2019-03-13T18:05:06.258Z,78.62
2019-03-13T18:07:38.056Z,78.68
2019-03-13T18:10:12.229Z,78.96
2019-03-13T18:12:43.568Z,79.12
2019-03-13T18:15:15.060Z,79.10
2019-03-13T18:17:46.841Z,79.38
2019-03-13T18:20:19.628Z,79.24
2019-03-13T18:22:51.034Z,78.75
2019-03-13T18:25:22.748Z,78.23
2019-03-13T18:27:54.280Z,78.34
2019-03-13T18:30:25.649Z,78.49
2019-03-13T18:32:57.230Z,78.61
2019-03-13T18:35:28.598Z,77.96
2019-03-13T18:37:59.981Z,78.32
2019-03-13T18:40:31.381Z,78.53
2019-03-13T18:43:02.772Z,78.47
2019-03-13T18:45:34.288Z,78.38
2019-03-13T18:48:05.581Z,77.83
2019-03-13T18:50:36.921Z,77.90
2019-03-13T18:53:08.206Z,77.94
2019-03-13T18:55:39.450Z,78.19
2019-03-13T18:58:13.973Z,78.15
2019-03-13T19:00:44.363Z,79.08
2019-03-13T19:03:15.969Z,79.92
2019-03-13T19:05:47.288Z,80.19
2019-03-13T19:08:18.941Z,80.54
2019-03-13T19:10:50.436Z,80.55
2019-03-13T19:13:22.043Z,80.91
2019-03-13T19:15:53.732Z,81.06
2019-03-13T19:18:25.359Z,81.10
2019-03-13T19:20:58.583Z,80.57
2019-03-13T19:23:30.037Z,80.59
2019-03-13T19:26:01.755Z,80.90
2019-03-13T19:28:33.072Z,80.86
2019-03-13T19:31:04.739Z,81.24
2019-03-13T19:33:36.783Z,81.05
2019-03-13T19:36:08.082Z,81.03
2019-03-13T19:38:41.139Z,81.26
2019-03-13T19:41:12.531Z,81.52
2019-03-13T19:43:43.770Z,81.77
2019-03-13T19:46:15.174Z,81.38
2019-03-13T19:48:46.420Z,82.18
2019-03-13T19:51:18.636Z,82.55
2019-03-13T19:53:49.988Z,82.62
2019-03-13T19:56:21.547Z,83.07
2019-03-13T19:58:52.794Z,83.17
2019-03-13T20:01:24.474Z,83.23
2019-03-13T20:03:56.015Z,82.98
2019-03-13T20:06:28.365Z,82.38
2019-03-13T20:09:00.042Z,82.46
2019-03-13T20:11:31.294Z,82.03
2019-03-13T20:14:03.048Z,83.00
2019-03-13T20:16:34.399Z,82.94
2019-03-13T20:19:06.420Z,82.66
2019-03-13T20:21:38.109Z,81.95
2019-03-13T20:24:09.771Z,82.42
2019-03-13T20:26:41.181Z,82.26
2019-03-13T20:29:12.530Z,82.48
2019-03-13T20:31:43.899Z,82.73
2019-03-13T20:34:15.248Z,82.78
2019-03-13T20:36:46.918Z,81.99
2019-03-13T20:39:18.555Z,82.02
2019-03-13T20:41:50.243Z,83.27
2019-03-13T20:44:22.149Z,82.96
2019-03-13T20:46:54.335Z,83.54
2019-03-13T20:49:25.616Z,83.22
2019-03-13T20:51:57.208Z,82.74
2019-03-13T20:54:28.492Z,82.79
2019-03-13T20:57:00.685Z,82.54
2019-03-13T20:59:32.753Z,82.70
2019-03-13T21:02:04.525Z,82.19
2019-03-13T21:04:36.122Z,81.61
2019-03-13T21:07:07.690Z,82.22
2019-03-13T21:09:39.266Z,82.06
2019-03-13T21:12:10.862Z,81.62
2019-03-13T21:14:42.411Z,82.29
2019-03-13T21:17:13.795Z,81.54
2019-03-13T21:19:45.047Z,82.49
2019-03-13T21:22:16.324Z,81.82
2019-03-13T21:24:48.551Z,81.27
2019-03-13T21:27:19.795Z,82.04
2019-03-13T21:29:51.033Z,81.15
2019-03-13T21:32:22.375Z,80.21
2019-03-13T21:34:54.064Z,80.34
2019-03-13T21:37:25.629Z,80.93
2019-03-13T21:39:56.981Z,80.57
2019-03-13T21:42:28.554Z,80.53
2019-03-13T21:44:59.851Z,80.05
2019-03-13T21:47:31.163Z,79.90
2019-03-13T21:50:02.754Z,79.95
2019-03-13T21:52:34.371Z,79.83
2019-03-13T21:55:06.100Z,80.11
2019-03-13T21:57:37.403Z,79.99
2019-03-13T22:00:16.272Z,80.01
2019-03-13T22:02:48.212Z,79.98
2019-03-13T22:05:25.549Z,80.14
2019-03-13T22:07:52.958Z,80.07
2019-03-13T22:10:24.573Z,80.20
2019-03-13T22:12:55.839Z,80.11
2019-03-13T22:15:27.154Z,80.37
2019-03-13T22:17:58.506Z,79.64
2019-03-13T22:20:29.776Z,79.45
2019-03-13T22:23:01.164Z,79.66
2019-03-13T22:25:32.459Z,79.56
2019-03-13T22:28:03.684Z,79.39
2019-03-13T22:30:34.932Z,79.50
2019-03-13T22:33:06.625Z,78.99
2019-03-13T22:35:37.985Z,78.08
2019-03-13T22:38:09.252Z,77.91
2019-03-13T22:40:41.438Z,78.18
2019-03-13T22:43:12.734Z,78.06
2019-03-13T22:45:44.291Z,78.66
2019-03-13T22:48:15.583Z,78.43
2019-03-13T22:50:46.835Z,77.93
2019-03-13T22:53:18.079Z,78.96
2019-03-13T22:55:49.433Z,78.60
2019-03-13T22:58:21.001Z,78.36
2019-03-13T23:01:04.261Z,78.61
2019-03-13T23:03:35.953Z,78.55
2019-03-13T23:06:07.222Z,78.76
2019-03-13T23:09:04.088Z,78.55
2019-03-13T23:12:00.820Z,79.36
2019-03-13T23:14:54.780Z,79.01
2019-03-13T23:17:47.780Z,79.83
2019-03-13T23:20:43.164Z,80.36
2019-03-13T23:23:44.902Z,79.85
2019-03-13T23:26:31.314Z,80.11
2019-03-13T23:29:15.668Z,79.70
2019-03-13T23:32:09.152Z,79.20
2019-03-13T23:34:51.040Z,79.04
2019-03-13T23:37:53.222Z,79.04
2019-03-13T23:40:45.145Z,79.21
2019-03-13T23:43:34.399Z,79.08
2019-03-13T23:46:16.264Z,79.22
2019-03-13T23:49:08.566Z,78.71
2019-03-13T23:52:13.544Z,78.96
2019-03-13T23:55:03.327Z,79.99
2019-03-13T23:57:49.664Z,79.85
